Time;durP1;ratioP1;P1;durP2;ratioP2;P2;SDS_P1;SDS_P2;PMS_P1;PMS_P2;Temp;Humidity;BMP_temperature;BMP_pressure;BME280_temperature;BME280_humidity;BME280_pressure;Samples;Min_cycle;Max_cycle;Signal;HPM_P1;HPM_P2
2022/02/25 00:00:28;;;;;;;2.67;2.43;;;4.40;99.90;;;;;;6332955;22;20158;-93
2022/02/25 00:03:01;;;;;;;4.67;3.27;;;4.20;99.90;;;;;;6334884;22;20170;-92
2022/02/25 00:05:33;;;;;;;3.90;3.03;;;4.20;99.90;;;;;;6334973;22;20162;-93
2022/02/25 00:08:07;;;;;;;4.63;2.83;;;4.10;99.90;;;;;;6308566;22;20204;-94
2022/02/25 00:13:14;;;;;;;4.33;2.43;;;3.70;99.90;;;;;;6345113;22;20257;-94
2022/02/25 00:15:47;;;;;;;5.73;2.77;;;3.50;99.90;;;;;;6327839;22;20151;-94
2022/02/25 00:18:19;;;;;;;6.23;3.13;;;3.50;99.90;;;;;;6323132;22;20193;-94
2022/02/25 00:20:50;;;;;;;5.10;2.80;;;3.50;99.90;;;;;;6313430;22;20208;-94
2022/02/25 00:23:27;;;;;;;4.23;2.67;;;3.50;99.90;;;;;;6317120;22;20177;-93
2022/02/25 00:25:58;;;;;;;6.70;2.87;;;3.40;99.90;;;;;;6325198;22;20174;-93
2022/02/25 00:28:30;;;;;;;3.90;2.90;;;3.40;99.90;;;;;;6322604;22;20201;-95
2022/02/25 00:31:02;;;;;;;3.50;2.60;;;3.40;99.90;;;;;;6300679;22;20166;-93
2022/02/25 00:33:38;;;;;;;4.30;3.07;;;3.40;99.90;;;;;;6332022;22;20161;-93
2022/02/25 00:36:10;;;;;;;3.63;2.53;;;3.40;99.90;;;;;;6322232;22;20267;-93
2022/02/25 00:38:43;;;;;;;3.27;2.63;;;3.40;99.90;;;;;;6326468;22;20200;-94
2022/02/25 00:41:15;;;;;;;3.50;2.93;;;3.30;99.90;;;;;;6333307;22;20189;-93
2022/02/25 00:43:54;;;;;;;4.33;2.93;;;3.30;99.90;;;;;;6333459;22;20238;-94
2022/02/25 00:46:26;;;;;;;4.33;3.20;;;3.30;99.90;;;;;;6324043;22;20228;-92
2022/02/25 00:48:58;;;;;;;4.27;3.00;;;3.30;99.90;;;;;;6305866;22;20190;-92
2022/02/25 00:51:29;;;;;;;3.40;2.50;;;3.20;99.90;;;;;;6332782;22;20174;-93
2022/02/25 00:54:03;;;;;;;4.07;2.83;;;3.20;99.90;;;;;;6304790;22;20174;-92
2022/02/25 00:56:35;;;;;;;3.63;2.70;;;3.10;99.90;;;;;;6330904;22;20154;-92
2022/02/25 00:59:06;;;;;;;4.47;2.63;;;3.20;99.90;;;;;;6334431;22;20464;-93
2022/02/25 01:04:14;;;;;;;5.23;2.90;;;3.10;99.90;;;;;;6331234;22;20206;-92
2022/02/25 01:06:45;;;;;;;3.90;2.67;;;2.90;99.90;;;;;;6335143;22;20206;-93
2022/02/25 01:09:20;;;;;;;5.47;3.20;;;2.90;99.90;;;;;;6332715;22;20163;-93
2022/02/25 01:11:51;;;;;;;2.77;2.33;;;3.00;99.90;;;;;;6331640;22;20170;-92
2022/02/25 01:14:23;;;;;;;5.53;3.20;;;3.00;99.90;;;;;;6328896;22;20170;-93
2022/02/25 01:16:55;;;;;;;4.73;2.87;;;2.90;99.90;;;;;;6300833;22;20179;-93
2022/02/25 01:19:27;;;;;;;4.40;3.17;;;2.80;99.90;;;;;;6328717;22;20182;-93
2022/02/25 01:24:35;;;;;;;4.13;2.83;;;2.70;99.90;;;;;;6329301;22;20205;-92
2022/02/25 01:27:08;;;;;;;4.23;2.83;;;2.70;99.90;;;;;;6325121;22;20208;-92
2022/02/25 01:29:42;;;;;;;6.57;2.77;;;2.60;99.90;;;;;;6325233;22;20165;-92
2022/02/25 01:32:13;;;;;;;3.23;2.77;;;2.50;99.90;;;;;;6325344;22;20162;-92
2022/02/25 01:34:45;;;;;;;4.83;2.93;;;2.40;99.90;;;;;;6300197;22;20173;-93
2022/02/25 01:37:16;;;;;;;3.30;2.77;;;2.30;99.90;;;;;;6327528;22;20170;-92
2022/02/25 01:39:49;;;;;;;5.80;3.10;;;2.30;99.90;;;;;;6327934;22;20169;-93
2022/02/25 01:42:21;;;;;;;4.60;2.90;;;2.20;99.90;;;;;;6330357;22;20236;-92
2022/02/25 01:44:52;;;;;;;3.93;2.83;;;2.10;99.90;;;;;;6331113;22;20167;-93
2022/02/25 01:47:23;;;;;;;6.43;2.80;;;2.00;99.90;;;;;;6332783;22;20202;-91
2022/02/25 01:49:55;;;;;;;3.37;2.90;;;1.90;99.90;;;;;;6327566;22;20220;-91
2022/02/25 01:52:27;;;;;;;4.83;3.10;;;1.90;99.90;;;;;;6331947;22;20167;-92
2022/02/25 01:55:01;;;;;;;2.80;2.47;;;1.80;99.90;;;;;;6317758;22;20224;-92
2022/02/25 01:57:32;;;;;;;4.60;2.87;;;1.70;99.90;;;;;;6335721;22;20182;-92
2022/02/25 02:00:04;;;;;;;5.77;3.00;;;1.70;99.90;;;;;;6336289;22;20200;-95
2022/02/25 02:02:36;;;;;;;4.97;2.93;;;1.60;99.90;;;;;;6310306;22;20173;-93
2022/02/25 02:05:07;;;;;;;5.67;2.93;;;1.60;99.90;;;;;;6320245;22;20190;-83
2022/02/25 02:10:17;;;;;;;3.20;2.87;;;1.50;99.90;;;;;;6333796;22;20198;-93
2022/02/25 02:12:49;;;;;;;5.20;3.27;;;1.40;99.90;;;;;;6327627;22;20182;-93
2022/02/25 02:18:15;;;;;;;4.97;3.07;;;1.30;99.90;;;;;;6295771;22;20170;-93
2022/02/25 02:20:48;;;;;;;5.73;3.37;;;1.30;99.90;;;;;;6301882;22;20190;-92
2022/02/25 02:23:22;;;;;;;3.40;2.43;;;1.20;99.90;;;;;;6305133;22;20159;-93
2022/02/25 02:25:54;;;;;;;7.80;2.83;;;1.20;99.90;;;;;;6305233;22;20165;-93
2022/02/25 02:28:27;;;;;;;7.57;2.70;;;1.10;99.90;;;;;;6302605;22;20259;-93
2022/02/25 02:31:00;;;;;;;5.50;3.43;;;1.10;99.90;;;;;;6299651;22;20155;-94
2022/02/25 02:33:31;;;;;;;3.80;2.80;;;1.00;99.90;;;;;;6296152;22;20163;-92
2022/02/25 02:36:02;;;;;;;5.13;3.30;;;0.90;99.90;;;;;;6291648;22;20186;-94
2022/02/25 02:38:37;;;;;;;6.23;3.07;;;0.90;99.90;;;;;;6291412;22;20269;-93
2022/02/25 02:41:09;;;;;;;4.17;3.03;;;0.80;99.90;;;;;;6296151;22;20163;-92
2022/02/25 02:43:40;;;;;;;7.40;4.13;;;0.80;99.90;;;;;;6293205;22;20625;-92
2022/02/25 02:46:13;;;;;;;7.80;4.20;;;0.70;99.90;;;;;;6294052;22;20171;-93
2022/02/25 02:48:45;;;;;;;8.20;4.50;;;0.60;99.90;;;;;;6296219;22;20252;-93
2022/02/25 02:51:17;;;;;;;6.20;3.83;;;0.60;99.90;;;;;;6293648;22;20215;-93
2022/02/25 02:53:51;;;;;;;10.57;3.67;;;0.60;99.90;;;;;;6297247;22;20186;-93
2022/02/25 02:56:23;;;;;;;6.13;3.87;;;0.50;99.90;;;;;;6294562;22;20175;-93
2022/02/25 02:58:56;;;;;;;6.80;3.87;;;0.50;99.90;;;;;;6293251;22;20170;-94
2022/02/25 03:01:28;;;;;;;5.03;3.40;;;0.40;99.90;;;;;;6295619;22;20193;-93
2022/02/25 03:04:00;;;;;;;7.70;3.90;;;0.40;99.90;;;;;;6296238;22;20194;-93
2022/02/25 03:06:31;;;;;;;6.07;4.33;;;0.30;99.90;;;;;;6295095;22;20167;-94
2022/02/25 03:09:05;;;;;;;6.47;4.43;;;0.30;99.90;;;;;;6299447;22;20191;-94
2022/02/25 03:11:36;;;;;;;11.80;6.90;;;0.30;99.90;;;;;;6297735;22;20175;-92
2022/02/25 03:14:07;;;;;;;11.23;7.87;;;0.30;99.90;;;;;;6295652;22;20175;-93
2022/02/25 03:16:39;;;;;;;10.80;7.10;;;0.20;99.90;;;;;;6280743;22;20209;-93
2022/02/25 03:19:10;;;;;;;8.40;5.60;;;0.20;99.90;;;;;;6263366;23;20196;-93
2022/02/25 03:21:42;;;;;;;8.53;4.60;;;0.10;99.90;;;;;;6240790;23;20248;-93
2022/02/25 03:24:17;;;;;;;7.80;4.13;;;0.10;99.90;;;;;;6238484;23;20178;-93
2022/02/25 03:26:48;;;;;;;6.90;4.20;;;0.10;99.90;;;;;;6263562;23;20187;-93
2022/02/25 03:29:20;;;;;;;8.63;4.73;;;0.10;99.90;;;;;;6265961;23;20278;-93
2022/02/25 03:31:51;;;;;;;8.77;4.57;;;0.10;99.90;;;;;;6267380;23;20179;-94
2022/02/25 03:34:23;;;;;;;6.47;4.07;;;0.00;99.90;;;;;;6240641;23;20183;-92
2022/02/25 03:36:54;;;;;;;7.77;3.93;;;0.00;99.90;;;;;;6266284;23;20179;-91
2022/02/25 03:39:28;;;;;;;6.10;4.40;;;-0.10;99.90;;;;;;6263642;23;20194;-93
2022/02/25 03:41:59;;;;;;;5.90;4.30;;;-0.10;99.90;;;;;;6252666;23;20187;-94
2022/02/25 03:44:30;;;;;;;8.03;4.53;;;-0.10;99.90;;;;;;6260369;23;20177;-94
2022/02/25 03:47:01;;;;;;;5.60;3.90;;;-0.10;99.90;;;;;;6262431;23;20239;-94
2022/02/25 03:49:33;;;;;;;7.70;4.33;;;-0.10;99.90;;;;;;6265608;23;20195;-95
2022/02/25 03:52:04;;;;;;;5.17;4.00;;;-0.10;99.90;;;;;;6263498;23;20172;-92
2022/02/25 03:54:38;;;;;;;6.40;3.90;;;-0.10;99.90;;;;;;6234435;23;20221;-93
2022/02/25 03:57:09;;;;;;;9.63;4.50;;;-0.10;99.90;;;;;;6259973;23;20167;-94
2022/02/25 03:59:40;;;;;;;10.67;5.77;;;-0.20;99.90;;;;;;6261463;23;20175;-93
2022/02/25 04:02:12;;;;;;;9.67;5.77;;;-0.20;99.90;;;;;;6249093;23;20187;-94
2022/02/25 04:04:43;;;;;;;8.20;5.40;;;-0.20;99.90;;;;;;6261225;23;20174;-94
2022/02/25 04:07:14;;;;;;;8.97;6.13;;;-0.30;99.90;;;;;;6254110;23;20178;-93
2022/02/25 04:09:47;;;;;;;11.20;6.43;;;-0.30;99.90;;;;;;6258189;23;20203;-93
2022/02/25 04:12:20;;;;;;;10.50;7.47;;;-0.30;99.90;;;;;;6261647;23;20194;-94
2022/02/25 04:14:51;;;;;;;13.60;7.70;;;-0.30;99.90;;;;;;6257651;23;20176;-92
2022/02/25 04:17:24;;;;;;;13.30;7.10;;;-0.30;99.90;;;;;;6309365;22;20213;-93
2022/02/25 04:19:55;;;;;;;10.07;6.90;;;-0.30;99.90;;;;;;6325541;22;20184;-95
2022/02/25 04:22:28;;;;;;;13.13;7.13;;;-0.40;99.90;;;;;;6328195;22;20162;-93
2022/02/25 04:25:01;;;;;;;9.23;5.93;;;-0.40;99.90;;;;;;6325485;22;20177;-93
2022/02/25 04:27:34;;;;;;;9.27;5.70;;;-0.50;99.90;;;;;;6299414;22;20272;-92
2022/02/25 04:30:10;;;;;;;8.00;5.90;;;-0.50;99.90;;;;;;6297313;22;20228;-92
2022/02/25 04:32:42;;;;;;;10.03;5.67;;;-0.50;99.90;;;;;;6325157;22;20166;-93
2022/02/25 04:35:15;;;;;;;6.13;4.50;;;-0.50;99.90;;;;;;6329242;22;20184;-91
2022/02/25 04:37:48;;;;;;;7.50;4.73;;;-0.50;99.90;;;;;;6333778;22;20158;-91
2022/02/25 04:40:22;;;;;;;5.53;4.43;;;-0.50;99.90;;;;;;6334829;22;20204;-90
2022/02/25 04:42:54;;;;;;;7.20;5.30;;;-0.50;99.90;;;;;;6332503;22;20173;-93
2022/02/25 04:45:25;;;;;;;8.10;5.80;;;-0.50;99.90;;;;;;6316780;22;20197;-93
2022/02/25 04:47:57;;;;;;;9.83;6.20;;;-0.50;99.90;;;;;;6321837;22;20177;-94
2022/02/25 04:50:28;;;;;;;11.87;6.47;;;-0.60;99.90;;;;;;6313467;22;20258;-93
2022/02/25 04:53:00;;;;;;;8.53;5.57;;;-0.60;99.90;;;;;;6317808;22;20174;-93
2022/02/25 04:55:34;;;;;;;9.77;5.33;;;-0.60;99.90;;;;;;6320631;22;20184;-92
2022/02/25 04:58:05;;;;;;;6.93;4.97;;;-0.60;99.90;;;;;;6319892;22;20188;-93
2022/02/25 05:00:37;;;;;;;11.70;6.40;;;-0.60;99.90;;;;;;6317815;22;20208;-93
2022/02/25 05:03:10;;;;;;;9.17;5.80;;;-0.70;99.90;;;;;;6290575;22;20165;-94
2022/02/25 05:05:43;;;;;;;10.00;6.33;;;-0.70;99.90;;;;;;6318505;22;20216;-93
2022/02/25 05:08:13;;;;;;;9.47;5.93;;;-0.70;99.90;;;;;;6324570;22;20174;-94
2022/02/25 05:10:50;;;;;;;9.10;6.00;;;-0.70;99.90;;;;;;6290889;22;20267;-93
2022/02/25 05:13:22;;;;;;;9.00;6.43;;;-0.70;99.90;;;;;;6323008;22;20503;-92
2022/02/25 05:21:31;;;;;;;9.13;5.60;;;-0.70;99.90;;;;;;6310166;22;20616;-93
2022/02/25 05:24:02;;;;;;;9.50;5.53;;;-0.70;99.90;;;;;;6284767;22;20592;-92
2022/02/25 05:26:37;;;;;;;9.97;5.20;;;-0.70;99.90;;;;;;6310071;22;20201;-93
2022/02/25 05:29:08;;;;;;;8.20;5.00;;;-0.80;99.90;;;;;;6296200;22;20196;-93
2022/02/25 05:31:40;;;;;;;8.03;5.00;;;-0.80;99.90;;;;;;6316805;22;20196;-94
2022/02/25 05:34:11;;;;;;;6.37;4.70;;;-0.80;99.90;;;;;;6322326;22;20237;-92
2022/02/25 05:36:43;;;;;;;7.93;5.40;;;-0.80;99.90;;;;;;6313510;22;20620;-93
2022/02/25 05:39:16;;;;;;;8.67;4.73;;;-0.80;99.90;;;;;;6327067;22;20171;-94
2022/02/25 05:41:50;;;;;;;6.53;4.50;;;-0.80;99.90;;;;;;6295743;22;20216;-93
2022/02/25 05:44:22;;;;;;;6.60;4.70;;;-0.80;99.90;;;;;;6319082;22;20169;-93
2022/02/25 05:46:54;;;;;;;5.97;4.27;;;-0.80;99.90;;;;;;6323329;22;20190;-94
2022/02/25 05:49:25;;;;;;;6.67;4.33;;;-0.80;99.90;;;;;;6284418;22;20197;-92
2022/02/25 05:51:57;;;;;;;6.77;4.33;;;-0.90;99.90;;;;;;6284994;22;20177;-92
2022/02/25 05:54:28;;;;;;;6.43;4.37;;;-0.90;99.90;;;;;;6311642;22;20169;-93
2022/02/25 05:57:02;;;;;;;6.13;4.23;;;-0.90;99.90;;;;;;6284073;22;20563;-93
2022/02/25 05:59:33;;;;;;;6.93;4.10;;;-0.80;99.90;;;;;;6311727;22;20223;-92
2022/02/25 06:02:05;;;;;;;5.97;4.07;;;-0.90;99.90;;;;;;6285577;22;20169;-94
2022/02/25 06:04:37;;;;;;;6.33;3.93;;;-0.90;99.90;;;;;;6311172;22;20605;-93
2022/02/25 06:07:08;;;;;;;9.00;4.40;;;-0.90;99.90;;;;;;6310622;22;20197;-93
2022/02/25 06:09:40;;;;;;;6.00;4.10;;;-0.90;99.90;;;;;;6313951;22;20190;-93
2022/02/25 06:12:14;;;;;;;7.33;5.10;;;-0.90;99.90;;;;;;6315968;22;20206;-93
2022/02/25 06:14:45;;;;;;;9.27;4.63;;;-0.90;99.90;;;;;;6293352;22;20181;-93
2022/02/25 06:17:17;;;;;;;7.60;4.90;;;-0.90;99.90;;;;;;6321739;22;20200;-93
2022/02/25 06:19:50;;;;;;;9.70;5.17;;;-1.00;99.90;;;;;;6317258;22;20170;-89
2022/02/25 06:22:22;;;;;;;7.57;4.70;;;-1.00;99.90;;;;;;6297929;22;20168;-91
2022/02/25 06:24:54;;;;;;;8.33;5.30;;;-1.10;99.90;;;;;;6289371;22;20195;-93
2022/02/25 06:27:27;;;;;;;7.30;4.97;;;-1.00;99.90;;;;;;6311434;22;20461;-93
2022/02/25 06:29:58;;;;;;;10.53;5.47;;;-1.00;99.90;;;;;;6313097;22;20206;-93
2022/02/25 06:32:30;;;;;;;10.37;6.07;;;-1.10;99.90;;;;;;6312729;22;20600;-93
2022/02/25 06:35:01;;;;;;;7.60;5.50;;;-1.10;99.90;;;;;;6315206;22;20188;-93
2022/02/25 06:37:33;;;;;;;9.07;5.57;;;-1.10;99.90;;;;;;6314144;22;20635;-93
2022/02/25 06:40:05;;;;;;;7.93;5.33;;;-1.10;99.90;;;;;;6294733;22;20203;-95
2022/02/25 06:42:41;;;;;;;6.87;5.10;;;-1.10;99.90;;;;;;6328096;22;20169;-95
2022/02/25 06:45:17;;;;;;;6.13;5.00;;;-1.10;99.90;;;;;;6329312;22;20177;-93
2022/02/25 06:47:49;;;;;;;7.63;4.73;;;-1.20;99.90;;;;;;6326566;22;20165;-92
2022/02/25 06:50:21;;;;;;;8.10;5.70;;;-1.20;99.90;;;;;;6325303;22;20193;-93
2022/02/25 06:52:52;;;;;;;7.27;4.87;;;-1.20;99.90;;;;;;6335098;22;20169;-93
2022/02/25 06:55:23;;;;;;;7.63;5.47;;;-1.20;99.90;;;;;;6334055;22;20180;-92
2022/02/25 06:58:06;;;;;;;9.20;5.30;;;-1.30;99.90;;;;;;6309854;22;20229;-92
2022/02/25 07:00:40;;;;;;;7.97;4.97;;;-1.30;99.90;;;;;;6335204;22;20205;-93
2022/02/25 07:03:12;;;;;;;7.43;4.43;;;-1.20;99.90;;;;;;6335107;22;20224;-93
2022/02/25 07:05:43;;;;;;;7.73;4.37;;;-1.30;99.90;;;;;;6330890;22;20168;-92
2022/02/25 07:08:16;;;;;;;6.63;4.70;;;-1.30;99.90;;;;;;6330628;22;20226;-93
2022/02/25 07:10:48;;;;;;;6.80;4.50;;;-1.30;99.90;;;;;;6327738;22;20193;-91
2022/02/25 07:13:21;;;;;;;8.23;4.57;;;-1.30;99.90;;;;;;6328681;22;20212;-93
2022/02/25 07:15:53;;;;;;;5.40;3.83;;;-1.40;99.90;;;;;;6330919;22;20213;-92
2022/02/25 07:18:24;;;;;;;9.00;4.13;;;-1.40;99.90;;;;;;6328628;22;20193;-92
2022/02/25 07:20:57;;;;;;;6.73;4.47;;;-1.40;99.90;;;;;;6329567;22;20164;-91
2022/02/25 07:23:29;;;;;;;5.03;4.20;;;-1.50;99.90;;;;;;6329241;22;20167;-92
2022/02/25 07:26:01;;;;;;;6.33;4.70;;;-1.50;99.90;;;;;;6329924;22;20310;-93
2022/02/25 07:28:34;;;;;;;6.87;4.67;;;-1.50;99.90;;;;;;6329046;22;20166;-92
2022/02/25 07:31:05;;;;;;;6.50;3.97;;;-1.50;99.90;;;;;;6329253;22;20189;-92
2022/02/25 07:33:37;;;;;;;7.47;4.10;;;-1.50;99.90;;;;;;6327957;22;20210;-93
2022/02/25 07:36:09;;;;;;;8.07;4.30;;;-1.50;99.90;;;;;;6331231;22;20230;-92
2022/02/25 07:38:39;;;;;;;6.20;4.13;;;-1.60;99.90;;;;;;6330703;22;20177;-93
2022/02/25 07:41:10;;;;;;;6.40;4.10;;;-1.60;99.90;;;;;;6329883;22;20163;-91
2022/02/25 07:43:44;;;;;;;7.87;4.13;;;-1.60;99.90;;;;;;6334026;22;20162;-92
2022/02/25 07:46:15;;;;;;;8.23;4.10;;;-1.60;99.90;;;;;;6329890;22;20174;-92
2022/02/25 07:48:48;;;;;;;4.47;3.47;;;-1.70;99.90;;;;;;6317003;22;20680;-92
2022/02/25 07:51:19;;;;;;;5.63;3.80;;;-1.70;99.90;;;;;;6314524;22;20228;-94
2022/02/25 07:53:50;;;;;;;6.23;4.00;;;-1.70;99.90;;;;;;6313710;22;20595;-92
2022/02/25 07:56:21;;;;;;;6.70;3.97;;;-1.70;99.90;;;;;;6313578;22;20171;-92
2022/02/25 07:58:54;;;;;;;9.57;4.00;;;-1.70;99.90;;;;;;6312772;22;20213;-93
2022/02/25 08:01:25;;;;;;;6.53;3.77;;;-1.70;99.90;;;;;;6313353;22;20182;-92
2022/02/25 08:03:57;;;;;;;5.97;4.10;;;-1.70;99.90;;;;;;6315641;22;20243;-92
2022/02/25 08:06:30;;;;;;;5.60;4.17;;;-1.80;99.90;;;;;;6320524;22;20172;-92
2022/02/25 08:09:01;;;;;;;6.53;4.13;;;-1.80;99.90;;;;;;6331764;22;20166;-92
2022/02/25 08:11:32;;;;;;;6.23;4.60;;;-1.80;99.90;;;;;;6330706;22;20205;-93
2022/02/25 08:14:07;;;;;;;6.57;4.27;;;-1.80;99.90;;;;;;6332886;22;20655;-91
2022/02/25 08:16:38;;;;;;;5.93;4.37;;;-1.80;99.90;;;;;;6331851;22;20172;-92
2022/02/25 08:19:10;;;;;;;6.43;4.20;;;-1.80;99.90;;;;;;6323404;22;20508;-91
2022/02/25 08:21:41;;;;;;;8.30;4.40;;;-1.80;99.90;;;;;;6319219;22;20201;-91
2022/02/25 08:24:13;;;;;;;7.07;3.93;;;-1.90;99.90;;;;;;6315020;22;20220;-94
2022/02/25 08:26:44;;;;;;;5.33;3.53;;;-1.90;99.90;;;;;;6313401;22;20332;-93
2022/02/25 08:29:17;;;;;;;6.63;4.10;;;-1.90;99.90;;;;;;6312693;22;20605;-92
2022/02/25 08:31:51;;;;;;;4.33;3.73;;;-1.90;99.90;;;;;;6312997;22;20668;-93
2022/02/25 08:34:23;;;;;;;6.70;3.57;;;-1.90;99.90;;;;;;6312660;22;20350;-92
2022/02/25 08:36:55;;;;;;;6.47;3.90;;;-1.90;99.90;;;;;;6311773;22;20171;-94
2022/02/25 08:39:27;;;;;;;5.80;4.03;;;-1.90;99.90;;;;;;6310964;22;20200;-93
2022/02/25 08:41:59;;;;;;;5.17;3.57;;;-2.00;99.90;;;;;;6312466;22;20168;-94
2022/02/25 08:44:32;;;;;;;8.30;3.97;;;-2.00;99.90;;;;;;6285528;22;20247;-92
2022/02/25 08:47:03;;;;;;;5.03;3.97;;;-2.00;99.90;;;;;;6311860;22;20176;-93
2022/02/25 08:49:35;;;;;;;5.60;3.90;;;-1.90;99.90;;;;;;6316258;22;20189;-93
2022/02/25 08:52:09;;;;;;;8.40;3.70;;;-1.90;99.90;;;;;;6311398;22;20196;-93
2022/02/25 08:54:43;;;;;;;6.80;3.97;;;-1.90;99.90;;;;;;6311662;22;20167;-92
2022/02/25 08:57:14;;;;;;;5.50;3.63;;;-1.90;99.90;;;;;;6326878;22;20166;-92
2022/02/25 08:59:47;;;;;;;5.50;3.90;;;-2.00;99.90;;;;;;6332661;22;20179;-93
2022/02/25 09:02:18;;;;;;;5.73;3.70;;;-2.00;99.90;;;;;;6311345;22;20201;-93
2022/02/25 09:04:50;;;;;;;5.20;3.03;;;-2.00;99.90;;;;;;6310409;22;20183;-91
2022/02/25 09:07:22;;;;;;;8.57;4.03;;;-2.00;99.90;;;;;;6309793;22;20170;-93
2022/02/25 09:09:53;;;;;;;6.53;3.77;;;-2.10;99.90;;;;;;6310915;22;20167;-93
2022/02/25 09:12:27;;;;;;;4.80;3.53;;;-2.00;99.90;;;;;;6284893;22;20208;-93
2022/02/25 09:15:02;;;;;;;5.60;4.03;;;-2.00;99.90;;;;;;6317018;22;20189;-92
2022/02/25 09:17:33;;;;;;;7.80;4.87;;;-2.10;99.90;;;;;;6333652;22;20185;-92
2022/02/25 09:20:06;;;;;;;7.83;4.80;;;-2.10;99.90;;;;;;6334695;22;20219;-92
2022/02/25 09:22:42;;;;;;;11.50;5.60;;;-2.10;99.90;;;;;;6321165;22;20174;-92
2022/02/25 09:25:13;;;;;;;9.30;5.90;;;-2.10;99.90;;;;;;6287664;22;20625;-91
2022/02/25 09:27:46;;;;;;;9.00;5.80;;;-2.20;99.90;;;;;;6312437;22;20171;-93
2022/02/25 09:30:18;;;;;;;9.97;5.70;;;-2.20;99.90;;;;;;6314243;22;20170;-92
2022/02/25 09:32:51;;;;;;;9.13;5.80;;;-2.30;99.90;;;;;;6316876;22;20201;-94
2022/02/25 09:35:23;;;;;;;11.97;6.87;;;-2.30;99.90;;;;;;6313350;22;20176;-92
2022/02/25 09:37:55;;;;;;;8.53;5.87;;;-2.30;99.90;;;;;;6312081;22;20189;-91
2022/02/25 09:40:26;;;;;;;8.67;6.00;;;-2.30;99.90;;;;;;6285497;22;20596;-92
2022/02/25 09:42:57;;;;;;;7.33;5.60;;;-2.40;99.90;;;;;;6311952;22;20174;-92
2022/02/25 09:45:31;;;;;;;9.40;5.30;;;-2.40;99.90;;;;;;6286686;22;20246;-91
2022/02/25 09:48:10;;;;;;;8.43;5.50;;;-2.40;99.90;;;;;;6313702;22;20201;-92
2022/02/25 09:50:42;;;;;;;7.97;5.80;;;-2.40;99.90;;;;;;6312003;22;20173;-92
2022/02/25 09:53:14;;;;;;;9.07;5.63;;;-2.40;99.90;;;;;;6311525;22;20224;-93
2022/02/25 09:55:47;;;;;;;7.73;4.93;;;-2.40;99.90;;;;;;6312111;22;20162;-92
2022/02/25 09:58:19;;;;;;;7.37;5.43;;;-2.40;99.90;;;;;;6310543;22;20654;-91
2022/02/25 10:00:52;;;;;;;7.80;5.03;;;-2.40;99.90;;;;;;6284839;22;20228;-92
2022/02/25 10:03:31;;;;;;;11.10;4.80;;;-2.40;99.90;;;;;;6310802;22;20181;-92
2022/02/25 10:06:06;;;;;;;5.80;4.10;;;-2.40;99.90;;;;;;6311244;22;20174;-92
2022/02/25 10:08:38;;;;;;;6.03;4.37;;;-2.40;99.90;;;;;;6310252;22;20186;-93
2022/02/25 10:11:08;;;;;;;6.20;4.33;;;-2.40;99.90;;;;;;6311325;22;20175;-93
2022/02/25 10:13:40;;;;;;;6.83;3.93;;;-2.40;99.90;;;;;;6311040;22;20173;-92
2022/02/25 10:16:33;;;;;;;6.33;4.50;;;-2.40;99.90;;;;;;6311038;22;20188;-93
2022/02/25 10:19:04;;;;;;;5.30;3.83;;;-2.40;99.90;;;;;;6309796;22;20159;-93
2022/02/25 10:21:37;;;;;;;6.53;4.30;;;-2.40;99.90;;;;;;6311757;22;20166;-91
2022/02/25 10:24:09;;;;;;;6.13;4.83;;;-2.40;99.90;;;;;;6311123;22;20625;-92
2022/02/25 10:26:41;;;;;;;5.73;4.07;;;-2.40;99.90;;;;;;6311024;22;20173;-91
2022/02/25 10:29:13;;;;;;;4.80;3.57;;;-2.40;99.90;;;;;;6310102;22;20214;-92
2022/02/25 10:31:47;;;;;;;5.87;3.70;;;-2.50;99.90;;;;;;6309961;22;20248;-92
2022/02/25 10:34:19;;;;;;;6.47;4.13;;;-2.50;99.90;;;;;;6310544;22;20162;-91
2022/02/25 10:36:53;;;;;;;5.53;3.73;;;-2.50;99.90;;;;;;6310279;22;20166;-92
2022/02/25 10:39:32;;;;;;;5.57;3.23;;;-2.50;99.90;;;;;;6311238;22;20213;-92
2022/02/25 10:42:08;;;;;;;6.77;3.80;;;-2.50;99.90;;;;;;6314860;22;20460;-92
2022/02/25 10:44:45;;;;;;;5.80;3.40;;;-2.60;99.90;;;;;;6313344;22;20170;-93
2022/02/25 10:47:22;;;;;;;4.87;3.40;;;-2.60;99.90;;;;;;6309938;22;20241;-92
2022/02/25 10:50:01;;;;;;;4.23;2.90;;;-2.60;99.90;;;;;;6310642;22;20171;-92
2022/02/25 10:52:35;;;;;;;4.43;2.83;;;-2.70;99.90;;;;;;6314119;22;20190;-92
2022/02/25 10:55:13;;;;;;;4.53;2.90;;;-2.70;99.90;;;;;;6313288;22;20193;-93
2022/02/25 10:57:45;;;;;;;4.60;3.43;;;-2.70;99.90;;;;;;6313043;22;20174;-92
2022/02/25 11:00:19;;;;;;;4.63;3.13;;;-2.70;99.90;;;;;;6311490;22;20628;-91
2022/02/25 11:02:56;;;;;;;4.27;3.43;;;-2.70;99.90;;;;;;6314269;22;20252;-91
2022/02/25 11:05:29;;;;;;;5.77;3.00;;;-2.70;99.90;;;;;;6311224;22;20268;-91
2022/02/25 11:08:01;;;;;;;4.97;2.87;;;-2.70;99.90;;;;;;6285266;22;20179;-91
2022/02/25 11:10:34;;;;;;;4.40;3.00;;;-2.60;99.90;;;;;;6314594;22;20174;-92
2022/02/25 11:13:08;;;;;;;4.33;3.17;;;-2.70;99.90;;;;;;6311803;22;20190;-93
2022/02/25 11:15:43;;;;;;;4.17;3.13;;;-2.70;99.90;;;;;;6286266;22;20170;-90
2022/02/25 11:18:18;;;;;;;3.80;2.67;;;-2.70;99.90;;;;;;6314416;22;20515;-91
2022/02/25 11:20:53;;;;;;;5.03;3.10;;;-2.70;99.90;;;;;;6312994;22;20609;-92
2022/02/25 11:23:24;;;;;;;4.77;3.27;;;-2.70;99.90;;;;;;6313104;22;20506;-92
2022/02/25 11:25:56;;;;;;;5.07;3.30;;;-2.80;99.90;;;;;;6313536;22;20174;-92
2022/02/25 11:28:27;;;;;;;4.23;2.63;;;-2.80;99.90;;;;;;6313114;22;20166;-92
2022/02/25 11:31:06;;;;;;;5.17;2.80;;;-2.80;99.90;;;;;;6316676;22;20473;-91
2022/02/25 11:33:39;;;;;;;4.17;3.30;;;-2.80;99.90;;;;;;6327404;22;20271;-92
2022/02/25 11:36:12;;;;;;;5.70;2.80;;;-2.90;99.90;;;;;;6332163;22;20173;-91
2022/02/25 11:38:46;;;;;;;6.57;3.20;;;-2.80;99.90;;;;;;6333044;22;20192;-91
2022/02/25 11:41:19;;;;;;;4.47;3.33;;;-2.80;99.90;;;;;;6320555;22;20180;-92
2022/02/25 11:43:52;;;;;;;4.77;3.20;;;-2.90;99.90;;;;;;6313814;22;20319;-91
2022/02/25 11:46:27;;;;;;;5.53;3.13;;;-2.90;99.90;;;;;;6312842;22;20190;-92
2022/02/25 11:49:02;;;;;;;3.80;3.03;;;-2.90;99.90;;;;;;6312417;22;20184;-91
2022/02/25 11:51:36;;;;;;;4.60;3.23;;;-2.80;99.90;;;;;;6312306;22;20196;-92
2022/02/25 11:54:26;;;;;;;6.07;3.47;;;-2.80;99.90;;;;;;6317646;22;20190;-93
2022/02/25 11:57:27;;;;;;;4.70;3.30;;;-2.80;99.90;;;;;;6287612;22;20197;-93
2022/02/25 12:00:21;;;;;;;4.90;2.90;;;-2.80;99.90;;;;;;6311884;22;20198;-93
2022/02/25 12:03:13;;;;;;;4.20;2.90;;;-2.80;99.90;;;;;;6311156;22;20171;-92
2022/02/25 12:05:48;;;;;;;5.30;3.00;;;-2.80;99.90;;;;;;6310654;22;20168;-92
2022/02/25 12:08:25;;;;;;;5.47;2.93;;;-2.80;99.90;;;;;;6284070;22;20512;-92
2022/02/25 12:11:02;;;;;;;5.10;2.90;;;-2.80;99.90;;;;;;6284215;22;20216;-91
2022/02/25 12:13:33;;;;;;;4.90;3.00;;;-2.80;99.90;;;;;;6313677;22;20190;-91
2022/02/25 12:16:27;;;;;;;6.83;2.80;;;-2.80;99.90;;;;;;6311100;22;20188;-90
2022/02/25 12:19:10;;;;;;;4.93;2.97;;;-2.90;99.90;;;;;;6312621;22;20488;-91
2022/02/25 12:21:46;;;;;;;4.33;2.67;;;-2.90;99.90;;;;;;6311619;22;20186;-90
2022/02/25 12:24:19;;;;;;;5.33;2.57;;;-2.80;99.90;;;;;;6310951;22;20166;-91
2022/02/25 12:27:01;;;;;;;4.40;2.87;;;-2.80;99.90;;;;;;6310328;22;20203;-93
2022/02/25 12:29:41;;;;;;;5.03;3.30;;;-2.90;99.90;;;;;;6310492;22;20175;-92
2022/02/25 12:32:12;;;;;;;4.80;2.90;;;-2.90;99.90;;;;;;6309664;22;20621;-90
2022/02/25 12:34:44;;;;;;;4.43;2.57;;;-2.90;99.90;;;;;;6310543;22;20171;-91
2022/02/25 12:37:21;;;;;;;5.20;2.70;;;-2.90;99.90;;;;;;6309997;22;20557;-92
2022/02/25 12:40:06;;;;;;;4.97;2.73;;;-2.90;99.90;;;;;;6309774;22;20178;-92
2022/02/25 12:42:38;;;;;;;3.83;2.90;;;-2.90;99.90;;;;;;6285149;22;20178;-91
2022/02/25 12:45:10;;;;;;;4.17;2.50;;;-3.00;99.90;;;;;;6311612;22;20711;-92
2022/02/25 12:47:43;;;;;;;4.97;3.13;;;-2.90;99.90;;;;;;6312621;22;20647;-91
2022/02/25 12:50:17;;;;;;;3.30;2.50;;;-2.90;99.90;;;;;;6286066;22;20166;-92
2022/02/25 12:52:50;;;;;;;4.67;2.50;;;-3.00;99.90;;;;;;6313104;22;20213;-92
2022/02/25 12:55:22;;;;;;;5.60;2.83;;;-2.90;99.90;;;;;;6313569;22;20167;-93
2022/02/25 12:57:55;;;;;;;5.27;2.70;;;-3.00;99.90;;;;;;6286762;22;20182;-91
2022/02/25 13:00:27;;;;;;;4.13;2.60;;;-3.00;99.90;;;;;;6316755;22;20227;-91
2022/02/25 13:02:58;;;;;;;5.50;2.57;;;-3.00;99.90;;;;;;6321175;22;20174;-91
2022/02/25 13:05:30;;;;;;;6.53;2.93;;;-3.00;99.90;;;;;;6313787;22;20166;-92
2022/02/25 13:08:03;;;;;;;4.00;2.80;;;-3.10;99.90;;;;;;6313337;22;20500;-92
2022/02/25 13:10:36;;;;;;;7.50;3.50;;;-3.10;99.90;;;;;;6315009;22;20197;-92
2022/02/25 13:13:10;;;;;;;4.83;2.53;;;-3.10;99.90;;;;;;6314037;22;20195;-93
2022/02/25 13:15:41;;;;;;;4.30;2.63;;;-3.10;99.90;;;;;;6312670;22;20495;-91
2022/02/25 13:18:22;;;;;;;3.97;2.80;;;-3.10;99.90;;;;;;6315966;22;20236;-92
2022/02/25 13:21:00;;;;;;;4.93;2.60;;;-3.10;99.90;;;;;;6316314;22;20155;-91
2022/02/25 13:23:34;;;;;;;4.80;2.80;;;-3.10;99.90;;;;;;6313564;22;20574;-90
2022/02/25 13:26:07;;;;;;;4.70;2.83;;;-3.00;99.90;;;;;;6314431;22;20181;-91
2022/02/25 13:28:41;;;;;;;4.40;2.87;;;-3.10;99.90;;;;;;6288401;22;20163;-90
2022/02/25 13:31:13;;;;;;;4.97;2.80;;;-3.10;99.90;;;;;;6286431;22;20229;-92
2022/02/25 13:33:48;;;;;;;4.73;2.93;;;-3.10;99.90;;;;;;6311950;22;20201;-91
2022/02/25 13:36:19;;;;;;;5.97;3.13;;;-3.10;99.90;;;;;;6316578;22;20173;-92